createdAt,value
2023-04-16T00:00:29.661Z,29.8633
2023-04-16T00:01:33.561Z,29.8825
2023-04-16T00:02:37.624Z,29.8758
2023-04-16T00:03:41.815Z,29.8375
2023-04-16T00:04:45.863Z,29.8175
2023-04-16T00:05:49.746Z,29.8092
2023-04-16T00:06:53.655Z,29.8183
2023-04-16T00:07:57.530Z,29.7942
2023-04-16T00:09:01.414Z,29.7792
2023-04-16T00:10:05.333Z,29.7608
2023-04-16T00:11:09.193Z,29.6858
2023-04-16T00:12:13.083Z,29.7083
2023-04-16T00:13:16.985Z,29.7650
2023-04-16T00:14:20.877Z,29.7142
2023-04-16T00:15:24.784Z,29.7583
2023-04-16T00:16:28.995Z,29.8083
2023-04-16T00:17:32.963Z,29.7858
2023-04-16T00:18:36.841Z,29.8192
2023-04-16T00:19:40.742Z,29.8425
2023-04-16T00:20:44.615Z,29.8483
2023-04-16T00:21:48.754Z,29.8592
2023-04-16T00:22:52.652Z,29.8042
2023-04-16T00:23:56.745Z,29.8300
2023-04-16T00:25:00.646Z,29.8158
2023-04-16T00:26:04.555Z,29.7542
2023-04-16T00:27:08.440Z,29.8150
2023-04-16T00:28:12.350Z,29.8592
2023-04-16T00:29:16.236Z,29.8867
2023-04-16T00:30:20.132Z,29.8767
2023-04-16T00:31:24.350Z,29.8233
2023-04-16T00:32:28.379Z,29.8225
2023-04-16T00:33:32.287Z,29.8033
2023-04-16T00:34:32.496Z,29.8145
2023-04-16T00:35:36.392Z,29.7933
2023-04-16T00:36:40.329Z,29.8200
2023-04-16T00:37:44.206Z,29.7717
2023-04-16T00:38:48.320Z,29.7567
2023-04-16T00:39:52.231Z,29.7117
2023-04-16T00:40:56.100Z,29.6325
2023-04-16T00:41:59.995Z,29.7733
2023-04-16T00:43:03.875Z,29.8067
2023-04-16T00:44:07.791Z,29.7892
2023-04-16T00:45:11.676Z,29.7775
2023-04-16T00:46:15.610Z,29.7800
2023-04-16T00:47:19.484Z,29.7300
2023-04-16T00:48:23.378Z,29.7833
2023-04-16T00:49:27.278Z,29.7725
2023-04-16T00:50:31.160Z,29.7542
2023-04-16T00:51:35.060Z,29.8000
2023-04-16T00:52:38.936Z,29.7625
2023-04-16T00:53:42.838Z,29.7825
2023-04-16T00:54:46.720Z,29.8058
2023-04-16T00:55:50.634Z,29.8533
2023-04-16T00:56:54.503Z,29.8400
2023-04-16T00:57:58.410Z,29.8017
2023-04-16T00:59:02.328Z,29.8667
2023-04-16T01:00:06.227Z,29.8658
2023-04-16T01:01:10.138Z,29.8408
2023-04-16T01:02:14.108Z,29.8567
2023-04-16T01:03:18.038Z,29.8600
2023-04-16T01:04:22.020Z,29.8142
2023-04-16T01:05:25.898Z,29.8325
2023-04-16T01:06:29.804Z,29.8392
2023-04-16T01:07:33.690Z,29.7967
2023-04-16T01:08:37.597Z,29.7750
2023-04-16T01:09:41.520Z,29.8250
2023-04-16T01:10:45.410Z,29.7858
2023-04-16T01:11:49.310Z,29.7658
2023-04-16T01:12:53.202Z,29.8292
2023-04-16T01:13:57.105Z,29.7900
2023-04-16T01:15:00.995Z,29.7925
2023-04-16T01:16:04.960Z,29.8108
2023-04-16T01:17:09.039Z,29.8000
2023-04-16T01:18:12.967Z,29.7892
2023-04-16T01:19:16.814Z,29.7692
2023-04-16T01:20:20.713Z,29.8125
2023-04-16T01:21:24.588Z,29.8342
2023-04-16T01:22:28.507Z,29.8367
2023-04-16T01:23:32.371Z,29.8233
2023-04-16T01:24:36.287Z,29.9325
2023-04-16T01:25:40.157Z,29.9783
2023-04-16T01:26:44.058Z,29.9825
2023-04-16T01:27:47.936Z,29.8917
2023-04-16T01:28:52.157Z,29.8917
2023-04-16T01:29:56.052Z,29.8558
2023-04-16T01:30:59.946Z,29.9342
2023-04-16T01:32:04.139Z,29.8817
2023-04-16T01:33:08.031Z,29.8792
2023-04-16T01:34:11.937Z,29.8658
2023-04-16T01:35:15.821Z,29.8492
2023-04-16T01:36:19.731Z,29.9383
2023-04-16T01:37:23.617Z,29.9967
2023-04-16T01:38:27.515Z,29.9758
2023-04-16T01:39:31.602Z,29.9733
2023-04-16T01:40:35.511Z,30.0167
2023-04-16T01:41:39.406Z,30.0042
2023-04-16T01:42:43.309Z,30.0008
2023-04-16T01:43:47.423Z,29.9633
2023-04-16T01:44:51.308Z,29.9608
2023-04-16T01:45:55.207Z,29.9917
2023-04-16T01:46:59.140Z,29.9725
2023-04-16T01:48:03.084Z,29.9958
2023-04-16T01:49:07.047Z,29.9700
2023-04-16T01:50:11.012Z,29.9692
2023-04-16T01:51:14.913Z,29.9833
2023-04-16T01:52:18.795Z,29.9867
2023-04-16T01:53:22.692Z,30.0333
2023-04-16T01:54:26.805Z,30.0133
2023-04-16T01:55:30.710Z,30.0033
2023-04-16T01:56:34.588Z,29.9925
2023-04-16T01:57:38.509Z,29.9708
2023-04-16T01:58:42.379Z,29.9792
2023-04-16T01:59:46.277Z,29.9733
2023-04-16T02:00:50.167Z,29.9867
2023-04-16T02:01:54.099Z,29.9892
2023-04-16T02:02:58.069Z,30.0175
2023-04-16T02:04:02.339Z,30.0342
2023-04-16T02:05:07.097Z,29.9825
2023-04-16T02:06:07.810Z,29.9630
2023-04-16T02:07:11.730Z,29.9733
2023-04-16T02:08:15.605Z,30.0300
2023-04-16T02:09:19.718Z,29.9425
2023-04-16T02:10:31.156Z,29.9767
2023-04-16T02:11:24.457Z,29.9880
2023-04-16T02:12:28.363Z,29.9383
2023-04-16T02:13:32.281Z,29.9008
2023-04-16T02:14:36.475Z,29.9425
2023-04-16T02:15:40.347Z,29.9925
2023-04-16T02:16:40.877Z,29.9736
2023-04-16T02:17:44.854Z,29.9375
2023-04-16T02:18:48.718Z,29.9733
2023-04-16T02:19:52.646Z,29.9942
2023-04-16T02:20:56.524Z,29.9917
2023-04-16T02:22:00.428Z,29.9400
2023-04-16T02:23:04.289Z,29.9767
2023-04-16T02:24:08.203Z,30.0475
2023-04-16T02:25:12.076Z,30.0483
2023-04-16T02:26:15.980Z,30.0167
2023-04-16T02:27:19.884Z,30.0033
2023-04-16T02:28:23.758Z,29.9842
2023-04-16T02:29:27.817Z,30.0425
2023-04-16T02:30:31.719Z,30.0333
2023-04-16T02:31:35.667Z,30.0600
2023-04-16T02:32:39.574Z,30.0117
2023-04-16T02:33:43.478Z,30.0475
2023-04-16T02:34:47.381Z,30.0842
2023-04-16T02:35:51.271Z,30.0692
2023-04-16T02:36:55.171Z,30.0417
2023-04-16T02:37:59.080Z,30.0133
2023-04-16T02:39:02.949Z,30.0792
2023-04-16T02:40:06.832Z,30.0317
2023-04-16T02:41:10.736Z,29.9375
2023-04-16T02:42:14.626Z,29.9050
2023-04-16T02:43:18.524Z,29.9108
2023-04-16T02:44:22.652Z,29.8950
2023-04-16T02:45:26.538Z,29.8933
2023-04-16T02:46:30.912Z,29.9225
2023-04-16T02:47:34.823Z,29.9650
2023-04-16T02:48:38.731Z,29.9775
2023-04-16T02:49:42.622Z,29.9383
2023-04-16T02:50:46.509Z,29.9233
2023-04-16T02:51:50.615Z,29.9550
2023-04-16T02:52:54.509Z,30.0125
2023-04-16T02:53:58.394Z,30.0383
2023-04-16T02:55:02.307Z,29.9625
2023-04-16T02:56:06.210Z,29.9408
2023-04-16T02:57:10.340Z,29.9283
2023-04-16T02:58:14.235Z,29.8983
2023-04-16T02:59:18.421Z,29.8300
2023-04-16T03:00:22.334Z,29.9017
2023-04-16T03:01:26.277Z,29.9167
2023-04-16T03:02:30.263Z,29.9100
2023-04-16T03:03:34.143Z,29.8900
2023-04-16T03:04:38.458Z,29.9075
2023-04-16T03:05:42.493Z,29.8942
2023-04-16T03:06:46.381Z,29.9017
2023-04-16T03:07:50.268Z,29.9100
2023-04-16T03:08:54.151Z,29.8875
2023-04-16T03:09:58.054Z,29.9217
2023-04-16T03:11:01.934Z,29.8775
2023-04-16T03:12:06.035Z,29.8933
2023-04-16T03:13:09.930Z,29.9825
2023-04-16T03:14:14.030Z,30.0250
2023-04-16T03:15:17.969Z,30.1133
2023-04-16T03:16:22.104Z,30.2183
2023-04-16T03:17:26.028Z,30.2400
2023-04-16T03:18:29.899Z,30.1967
2023-04-16T03:19:34.004Z,30.2517
2023-04-16T03:20:37.923Z,30.3183
2023-04-16T03:21:41.837Z,30.3883
2023-04-16T03:22:45.749Z,30.4092
2023-04-16T03:23:49.647Z,30.4033
2023-04-16T03:24:53.558Z,30.4050
2023-04-16T03:25:57.486Z,30.3783
2023-04-16T03:27:01.609Z,30.4250
2023-04-16T03:28:05.513Z,30.4017
2023-04-16T03:29:05.860Z,30.3545
2023-04-16T03:30:09.758Z,30.3275
2023-04-16T03:31:13.931Z,30.2850
2023-04-16T03:32:17.858Z,30.2983
2023-04-16T03:33:21.736Z,30.3000
2023-04-16T03:34:25.626Z,30.2633
2023-04-16T03:35:29.532Z,30.2517
2023-04-16T03:36:33.674Z,30.2517
2023-04-16T03:37:37.573Z,30.2350
2023-04-16T03:38:41.484Z,30.2033
2023-04-16T03:39:45.623Z,30.1750
2023-04-16T03:40:49.486Z,30.1767
2023-04-16T03:41:53.414Z,30.1858
2023-04-16T03:42:57.300Z,30.1442
2023-04-16T03:44:01.405Z,30.1717
2023-04-16T03:45:05.316Z,30.1583
2023-04-16T03:46:09.243Z,30.1117
2023-04-16T03:47:13.367Z,30.0483
2023-04-16T03:48:17.267Z,30.0425
2023-04-16T03:49:21.358Z,30.0242
2023-04-16T03:50:25.296Z,29.9933
2023-04-16T03:51:29.149Z,30.0133
2023-04-16T03:52:33.051Z,30.0058
2023-04-16T03:53:36.921Z,29.9883
2023-04-16T03:54:40.824Z,29.9958
2023-04-16T03:55:44.692Z,29.9667
2023-04-16T03:56:48.892Z,29.9725
2023-04-16T03:57:52.811Z,29.9933
2023-04-16T03:58:56.699Z,29.9800
2023-04-16T04:00:00.569Z,29.9783
2023-04-16T04:01:04.480Z,29.9583
2023-04-16T04:02:08.461Z,29.9875
2023-04-16T04:03:12.654Z,29.9808
2023-04-16T04:04:16.911Z,29.9758
2023-04-16T04:05:20.821Z,29.9567
2023-04-16T04:06:24.744Z,29.9642
2023-04-16T04:07:28.632Z,29.9758
2023-04-16T04:08:32.532Z,29.9667
2023-04-16T04:09:36.637Z,29.9550
2023-04-16T04:10:40.530Z,29.9617
2023-04-16T04:11:44.693Z,29.9383
2023-04-16T04:12:48.568Z,29.9217
2023-04-16T04:13:52.465Z,29.9283
2023-04-16T04:14:56.349Z,29.9300
2023-04-16T04:16:00.260Z,30.0400
2023-04-16T04:17:04.143Z,30.0775
2023-04-16T04:18:08.044Z,30.1550
2023-04-16T04:19:12.338Z,30.2258
2023-04-16T04:20:16.243Z,30.3875
2023-04-16T04:21:20.153Z,30.5300
2023-04-16T04:22:24.067Z,30.8058
2023-04-16T04:23:27.948Z,31.0000
2023-04-16T04:24:28.291Z,31.1909
2023-04-16T04:25:32.172Z,31.2075
2023-04-16T04:26:36.132Z,31.2650
2023-04-16T04:27:39.971Z,31.3958
2023-04-16T04:28:43.847Z,31.4583
2023-04-16T04:29:47.958Z,31.5175
2023-04-16T04:30:51.845Z,31.6083
2023-04-16T04:31:55.993Z,31.6467
2023-04-16T04:32:59.945Z,31.6708
2023-04-16T04:34:04.128Z,31.6808
2023-04-16T04:35:08.013Z,31.7633
2023-04-16T04:36:11.891Z,31.8267
2023-04-16T04:37:15.791Z,31.8850
2023-04-16T04:38:19.675Z,31.8817
2023-04-16T04:39:23.555Z,31.9375
2023-04-16T04:40:27.478Z,31.9967
2023-04-16T04:41:31.585Z,32.0417
2023-04-16T04:42:35.479Z,32.0533
2023-04-16T04:43:39.391Z,32.1317
2023-04-16T04:44:43.301Z,32.1508
2023-04-16T04:45:47.300Z,32.1708
2023-04-16T04:46:51.459Z,32.1392
2023-04-16T04:47:55.391Z,32.1125
2023-04-16T04:48:59.502Z,32.2092
2023-04-16T04:50:03.449Z,32.2442
2023-04-16T04:51:07.333Z,32.2308
2023-04-16T04:52:11.243Z,32.2358
2023-04-16T04:53:15.200Z,32.2875
2023-04-16T04:54:19.060Z,32.3192
2023-04-16T04:55:22.968Z,32.3325
2023-04-16T04:56:26.907Z,32.3783
2023-04-16T04:57:30.809Z,32.4200
2023-04-16T04:58:34.922Z,32.4417
2023-04-16T04:59:38.812Z,32.4658
2023-04-16T05:00:42.691Z,32.3700
2023-04-16T05:01:46.881Z,32.3225
2023-04-16T05:02:50.906Z,32.3292
2023-04-16T05:03:55.139Z,32.3233
2023-04-16T05:04:59.044Z,32.3817
2023-04-16T05:06:02.930Z,32.3792
2023-04-16T05:07:06.827Z,32.3700
2023-04-16T05:08:10.710Z,32.3450
2023-04-16T05:09:14.600Z,32.3325
2023-04-16T05:10:18.482Z,32.4200
2023-04-16T05:11:22.589Z,32.5175
2023-04-16T05:12:26.480Z,32.6292
2023-04-16T05:13:30.367Z,32.5750
2023-04-16T05:14:34.257Z,32.5283
2023-04-16T05:15:38.131Z,32.4700
2023-04-16T05:16:42.019Z,32.4133
2023-04-16T05:17:45.909Z,32.3625
2023-04-16T05:18:49.838Z,32.3367
2023-04-16T05:19:53.756Z,32.3033
2023-04-16T05:20:57.619Z,32.2992
2023-04-16T05:22:01.493Z,32.2967
2023-04-16T05:23:05.405Z,32.2775
2023-04-16T05:24:09.706Z,32.2650
2023-04-16T05:25:13.591Z,32.2592
2023-04-16T05:26:17.688Z,32.2592
2023-04-16T05:27:21.561Z,32.2883
2023-04-16T05:28:25.458Z,32.3108
2023-04-16T05:29:29.341Z,32.3050
2023-04-16T05:30:33.266Z,32.2767
2023-04-16T05:31:37.334Z,32.2375
2023-04-16T05:32:41.267Z,32.2192
2023-04-16T05:33:45.421Z,32.2358
2023-04-16T05:34:49.291Z,32.2333
2023-04-16T05:35:53.204Z,32.2183
2023-04-16T05:36:57.105Z,32.2467
2023-04-16T05:38:01.007Z,32.2392
2023-04-16T05:39:05.148Z,32.2167
2023-04-16T05:40:09.031Z,32.2083
2023-04-16T05:41:12.929Z,32.2117
2023-04-16T05:42:16.848Z,32.1917
2023-04-16T05:43:20.736Z,32.2042
2023-04-16T05:44:24.661Z,32.1842
2023-04-16T05:45:28.545Z,32.1525
2023-04-16T05:46:32.771Z,32.1825
2023-04-16T05:47:36.738Z,32.1808
2023-04-16T05:48:40.813Z,32.0992
2023-04-16T05:49:44.858Z,32.1225
2023-04-16T05:50:48.729Z,32.1258
2023-04-16T05:51:52.635Z,32.1050
2023-04-16T05:52:56.537Z,32.0908
2023-04-16T05:54:00.679Z,32.0942
2023-04-16T05:55:04.602Z,32.0683
2023-04-16T05:56:08.725Z,32.0683
2023-04-16T05:57:12.624Z,32.0200
2023-04-16T05:58:16.496Z,32.0400
2023-04-16T05:59:20.385Z,32.0325
2023-04-16T06:00:24.280Z,31.9975
2023-04-16T06:01:28.425Z,32.0233
2023-04-16T06:02:32.427Z,31.9850
2023-04-16T06:03:36.720Z,32.0058
2023-04-16T06:04:40.634Z,31.9675
2023-04-16T06:05:44.571Z,31.9458
2023-04-16T06:06:48.423Z,31.9258
2023-04-16T06:07:52.323Z,31.8975
2023-04-16T06:08:56.207Z,31.8758
2023-04-16T06:10:00.110Z,31.8583
2023-04-16T06:11:04.232Z,31.8800
2023-04-16T06:12:08.158Z,31.8908
2023-04-16T06:13:12.054Z,31.8900
2023-04-16T06:14:16.165Z,31.8625
2023-04-16T06:15:20.069Z,31.8608
2023-04-16T06:16:24.015Z,31.8617
2023-04-16T06:17:27.915Z,31.8642
2023-04-16T06:18:32.030Z,31.8558
2023-04-16T06:19:35.916Z,31.8242
2023-04-16T06:20:39.824Z,31.8483
2023-04-16T06:21:43.730Z,31.8242
2023-04-16T06:22:47.603Z,31.8325
2023-04-16T06:23:51.853Z,31.8092
2023-04-16T06:24:55.746Z,31.8033
2023-04-16T06:25:59.624Z,31.7183
2023-04-16T06:27:03.664Z,31.7000
2023-04-16T06:28:07.563Z,31.7117
2023-04-16T06:29:11.765Z,31.7142
2023-04-16T06:30:15.724Z,31.6833
2023-04-16T06:31:19.879Z,31.7258
2023-04-16T06:32:23.816Z,31.7033
2023-04-16T06:33:27.725Z,31.6758
2023-04-16T06:34:31.623Z,31.6600
2023-04-16T06:35:35.509Z,31.6425
2023-04-16T06:36:39.408Z,31.5975
2023-04-16T06:37:43.306Z,31.5908
2023-04-16T06:38:47.178Z,31.5817
2023-04-16T06:39:51.053Z,31.5550
2023-04-16T06:40:55.158Z,31.5217
2023-04-16T06:41:59.055Z,31.3667
2023-04-16T06:43:02.935Z,31.3742
2023-04-16T06:44:06.830Z,31.4200
2023-04-16T06:45:10.699Z,31.3317
2023-04-16T06:46:14.828Z,31.3658
2023-04-16T06:47:18.766Z,31.4008
2023-04-16T06:48:22.910Z,31.3558
2023-04-16T06:49:26.814Z,31.3742
2023-04-16T06:50:30.696Z,31.4017
2023-04-16T06:51:34.587Z,31.4800
2023-04-16T06:52:38.490Z,31.5367
2023-04-16T06:53:42.616Z,31.5375
2023-04-16T06:54:46.506Z,31.5692
2023-04-16T06:55:50.390Z,31.5942
2023-04-16T06:56:54.308Z,31.6475
2023-04-16T06:57:58.198Z,31.7075
2023-04-16T06:59:02.344Z,31.7133
2023-04-16T07:00:06.249Z,31.7133
2023-04-16T07:01:10.405Z,31.7425
2023-04-16T07:02:14.380Z,31.6992
2023-04-16T07:03:18.518Z,31.7400
2023-04-16T07:04:22.491Z,31.7808
2023-04-16T07:05:26.377Z,31.7692
2023-04-16T07:06:30.286Z,31.7733
2023-04-16T07:07:34.184Z,31.7667
2023-04-16T07:08:38.418Z,31.7742
2023-04-16T07:09:42.301Z,31.7967
2023-04-16T07:10:46.415Z,31.7817
2023-04-16T07:11:50.322Z,31.7775
2023-04-16T07:12:54.209Z,31.7225
2023-04-16T07:13:58.120Z,31.7825
2023-04-16T07:15:01.986Z,31.8250
2023-04-16T07:16:05.910Z,31.8575
2023-04-16T07:17:09.778Z,31.8500
2023-04-16T07:18:13.958Z,31.8750
2023-04-16T07:19:17.998Z,31.8567
2023-04-16T07:20:21.895Z,31.8617
2023-04-16T07:21:25.793Z,31.8433
2023-04-16T07:22:29.696Z,31.8342
2023-04-16T07:23:33.633Z,31.8383
2023-04-16T07:24:37.513Z,31.8133
2023-04-16T07:25:41.481Z,31.8092
2023-04-16T07:26:45.384Z,31.7858
2023-04-16T07:27:49.273Z,31.7917
2023-04-16T07:28:53.182Z,31.7733
2023-04-16T07:29:57.084Z,31.7258
2023-04-16T07:31:00.974Z,31.6850
2023-04-16T07:32:04.990Z,31.6733
2023-04-16T07:33:09.050Z,31.6792
2023-04-16T07:34:12.913Z,31.6942
2023-04-16T07:35:16.823Z,31.6883
2023-04-16T07:36:20.712Z,31.6800
2023-04-16T07:37:24.615Z,31.6842
2023-04-16T07:38:28.754Z,31.6558
2023-04-16T07:39:32.688Z,31.6625
2023-04-16T07:40:36.704Z,31.6858
2023-04-16T07:41:40.591Z,31.7100
2023-04-16T07:42:44.452Z,31.6642
2023-04-16T07:43:48.334Z,31.6450
2023-04-16T07:44:52.240Z,31.6442
2023-04-16T07:45:56.490Z,31.6833
2023-04-16T07:47:00.464Z,31.6933
2023-04-16T07:48:04.774Z,31.6875
2023-04-16T07:49:08.876Z,31.6758
2023-04-16T07:50:12.863Z,31.6833
2023-04-16T07:51:16.759Z,31.6508
2023-04-16T07:52:20.668Z,31.6075
2023-04-16T07:53:24.555Z,31.6117
2023-04-16T07:54:29.175Z,31.5933
2023-04-16T07:55:33.108Z,31.5817
2023-04-16T07:56:37.052Z,31.5292
2023-04-16T07:57:40.917Z,31.4758
2023-04-16T07:58:44.834Z,31.4058
2023-04-16T07:59:48.705Z,31.4108
2023-04-16T08:00:52.815Z,31.4075
2023-04-16T08:01:56.727Z,31.4050
2023-04-16T08:03:00.883Z,31.3933
2023-04-16T08:04:04.995Z,31.4192
2023-04-16T08:05:08.959Z,31.4233
2023-04-16T08:06:12.838Z,31.4050
2023-04-16T08:07:16.753Z,31.3542
2023-04-16T08:08:16.915Z,31.2945
2023-04-16T08:09:20.803Z,31.2933
2023-04-16T08:10:24.899Z,31.3192
2023-04-16T08:11:28.816Z,31.2967
2023-04-16T08:12:32.715Z,31.2583
2023-04-16T08:13:36.614Z,31.2442
2023-04-16T08:14:40.482Z,31.2358
2023-04-16T08:15:44.634Z,31.2508
2023-04-16T08:16:48.533Z,31.2733
2023-04-16T08:17:52.756Z,31.2592
2023-04-16T08:18:56.609Z,31.2583
2023-04-16T08:20:00.506Z,31.2283
2023-04-16T08:21:04.392Z,31.2033
2023-04-16T08:22:08.316Z,31.2083
2023-04-16T08:23:12.195Z,31.1917
2023-04-16T08:24:16.127Z,31.1667
2023-04-16T08:25:20.000Z,31.1767
2023-04-16T08:26:24.002Z,31.2183
2023-04-16T08:27:27.901Z,31.2333
2023-04-16T08:28:32.024Z,31.2333
2023-04-16T08:29:35.935Z,31.2492
2023-04-16T08:30:39.841Z,31.2358
2023-04-16T08:31:43.775Z,31.2308
2023-04-16T08:32:50.045Z,31.2325
2023-04-16T08:33:48.852Z,31.2236
2023-04-16T08:34:52.753Z,31.2067
2023-04-16T08:35:56.991Z,31.1883
2023-04-16T08:37:00.994Z,31.1925
2023-04-16T08:38:04.912Z,31.1875
2023-04-16T08:39:08.913Z,31.1475
2023-04-16T08:40:13.083Z,31.1383
2023-04-16T08:41:17.218Z,31.1500
2023-04-16T08:42:21.131Z,31.1242
2023-04-16T08:43:25.013Z,31.1467
2023-04-16T08:44:28.939Z,31.1675
2023-04-16T08:45:33.118Z,31.1417
2023-04-16T08:46:37.024Z,31.1200
2023-04-16T08:47:40.911Z,31.1192
2023-04-16T08:48:44.787Z,31.1533
2023-04-16T08:49:48.721Z,31.1525
2023-04-16T08:50:52.580Z,31.1558
2023-04-16T08:51:54.080Z,31.1900
2023-04-16T08:52:58.213Z,31.2083
2023-04-16T08:54:02.310Z,31.1975
2023-04-16T08:55:06.221Z,31.1375
2023-04-16T08:56:10.104Z,31.1183
2023-04-16T08:57:13.987Z,31.1283
2023-04-16T08:58:18.202Z,31.1167
2023-04-16T08:59:22.089Z,31.0992
2023-04-16T09:00:26.218Z,31.0675
2023-04-16T09:01:30.145Z,31.1067
2023-04-16T09:02:34.134Z,31.0683
2023-04-16T09:03:38.345Z,31.1308
2023-04-16T09:04:42.383Z,31.1592
2023-04-16T09:05:46.280Z,31.0917
2023-04-16T09:06:50.163Z,31.0833
2023-04-16T09:07:54.059Z,31.0675
2023-04-16T09:08:57.953Z,31.0850
2023-04-16T09:10:01.914Z,31.0925
2023-04-16T09:11:05.814Z,31.0825
2023-04-16T09:12:09.700Z,31.1167
2023-04-16T09:13:13.596Z,31.0217
2023-04-16T09:14:17.482Z,31.0150
2023-04-16T09:15:21.598Z,30.9842
2023-04-16T09:16:25.534Z,31.0617
2023-04-16T09:17:29.497Z,31.0458
2023-04-16T09:18:33.372Z,30.9758
2023-04-16T09:19:37.270Z,31.0567
2023-04-16T09:20:41.320Z,31.0317
2023-04-16T09:21:45.207Z,31.0633
2023-04-16T09:22:49.104Z,31.1242
2023-04-16T09:23:52.984Z,31.0858
2023-04-16T09:24:56.885Z,31.0267
2023-04-16T09:26:00.962Z,31.0058
2023-04-16T09:27:04.862Z,31.0467
2023-04-16T09:28:09.016Z,30.9842
2023-04-16T09:29:12.887Z,30.9783
2023-04-16T09:30:16.793Z,31.0117
2023-04-16T09:31:21.013Z,31.0117
2023-04-16T09:32:24.911Z,31.0458
2023-04-16T09:33:28.808Z,30.9942
2023-04-16T09:34:32.703Z,30.9808
2023-04-16T09:35:36.849Z,31.0167
2023-04-16T09:36:40.737Z,31.0350
2023-04-16T09:37:44.875Z,31.0267
2023-04-16T09:38:48.751Z,31.1017
2023-04-16T09:39:52.655Z,31.0783
2023-04-16T09:40:56.723Z,31.1025
2023-04-16T09:42:00.613Z,31.1475
2023-04-16T09:43:05.018Z,31.1025
2023-04-16T09:44:08.918Z,31.0883
2023-04-16T09:45:12.791Z,31.0633
2023-04-16T09:46:16.704Z,31.0692
2023-04-16T09:47:20.598Z,31.0817
2023-04-16T09:48:24.476Z,31.0758
2023-04-16T09:49:28.407Z,31.1258
2023-04-16T09:50:32.315Z,31.1392
2023-04-16T09:51:36.220Z,31.0950
2023-04-16T09:52:40.341Z,31.2350
2023-04-16T09:53:44.220Z,31.2392
2023-04-16T09:54:48.116Z,31.1342
2023-04-16T09:55:52.248Z,31.2567
2023-04-16T09:56:56.161Z,31.1933
2023-04-16T09:58:00.084Z,31.2150
2023-04-16T09:59:04.006Z,31.1533
2023-04-16T10:00:07.926Z,31.1267
2023-04-16T10:01:12.006Z,31.2242
2023-04-16T10:02:16.560Z,31.1708
2023-04-16T10:03:20.657Z,31.1983
2023-04-16T10:04:24.572Z,31.2517
2023-04-16T10:05:28.525Z,31.2225
2023-04-16T10:06:32.407Z,31.3675
2023-04-16T10:07:36.528Z,31.3217
2023-04-16T10:08:40.408Z,31.2433
2023-04-16T10:09:44.272Z,31.2083
2023-04-16T10:10:48.153Z,31.1667
2023-04-16T10:11:52.051Z,31.1450
2023-04-16T10:12:56.188Z,31.1675
2023-04-16T10:14:00.172Z,31.1592
2023-04-16T10:15:04.311Z,31.1708
2023-04-16T10:16:08.201Z,31.1858
2023-04-16T10:17:12.117Z,31.1708
2023-04-16T10:18:16.008Z,31.1758
2023-04-16T10:19:19.929Z,31.2383
2023-04-16T10:20:23.823Z,31.2708
2023-04-16T10:21:27.740Z,31.2242
2023-04-16T10:22:31.614Z,31.2150
2023-04-16T10:23:35.508Z,31.1942
2023-04-16T10:24:39.417Z,31.1933
2023-04-16T10:25:43.545Z,31.2242
2023-04-16T10:26:47.428Z,31.2433
2023-04-16T10:27:51.560Z,31.2433
2023-04-16T10:28:55.456Z,31.2825
2023-04-16T10:29:59.342Z,31.3217
2023-04-16T10:31:03.281Z,31.3317
2023-04-16T10:32:07.159Z,31.3017
2023-04-16T10:33:11.093Z,31.3108
2023-04-16T10:34:14.964Z,31.3200
2023-04-16T10:35:18.870Z,31.3183
2023-04-16T10:36:22.779Z,31.3417
2023-04-16T10:37:26.976Z,31.3742
2023-04-16T10:38:30.880Z,31.4058
2023-04-16T10:39:34.805Z,31.4475
2023-04-16T10:40:38.725Z,31.4417
2023-04-16T10:41:42.628Z,31.4192
2023-04-16T10:42:46.535Z,31.4692
2023-04-16T10:43:50.450Z,31.4583
2023-04-16T10:44:54.342Z,31.4900
2023-04-16T10:45:58.482Z,31.6125
2023-04-16T10:47:02.418Z,31.5833
2023-04-16T10:48:06.350Z,31.6000
2023-04-16T10:49:10.319Z,31.5917
2023-04-16T10:50:14.545Z,31.5825
2023-04-16T10:51:18.466Z,31.6292
2023-04-16T10:52:22.393Z,31.6525
2023-04-16T10:53:26.269Z,31.7125
2023-04-16T10:54:30.143Z,31.6817
2023-04-16T10:55:34.025Z,31.6592
2023-04-16T10:56:37.908Z,31.6858
2023-04-16T10:57:41.787Z,31.7425
2023-04-16T10:58:45.673Z,31.7992
2023-04-16T10:59:49.902Z,31.8700
2023-04-16T11:00:53.810Z,31.9708
2023-04-16T11:01:57.798Z,31.9192
2023-04-16T11:03:01.768Z,32.0142
2023-04-16T11:04:05.793Z,32.0342
2023-04-16T11:05:09.755Z,31.9483
2023-04-16T11:06:13.676Z,31.9600
2023-04-16T11:07:17.568Z,32.0158
2023-04-16T11:08:21.440Z,31.9350
2023-04-16T11:09:25.347Z,31.8783
2023-04-16T11:10:29.459Z,31.9942
2023-04-16T11:11:33.375Z,31.9642
2023-04-16T11:12:37.399Z,31.9783
2023-04-16T11:13:43.133Z,32.0517
2023-04-16T11:14:42.124Z,32.0482
2023-04-16T11:15:46.274Z,32.0958
2023-04-16T11:16:50.159Z,32.1917
2023-04-16T11:17:54.152Z,32.1600
2023-04-16T11:18:58.027Z,32.1308
2023-04-16T11:20:02.136Z,32.2108
2023-04-16T11:21:06.042Z,32.2233
2023-04-16T11:22:09.960Z,32.2825
2023-04-16T11:23:10.310Z,32.1455
2023-04-16T11:24:14.254Z,32.1850
2023-04-16T11:25:18.135Z,32.1208
2023-04-16T11:26:22.016Z,32.1917
2023-04-16T11:27:25.915Z,32.3058
2023-04-16T11:28:29.801Z,32.2550
2023-04-16T11:29:33.689Z,32.2225
2023-04-16T11:30:37.584Z,32.2183
2023-04-16T11:31:41.495Z,32.2383
2023-04-16T11:32:45.419Z,32.2592
2023-04-16T11:33:49.276Z,32.3375
2023-04-16T11:34:53.387Z,32.3117
2023-04-16T11:35:57.279Z,32.4008
2023-04-16T11:37:01.169Z,32.2967
2023-04-16T11:38:05.317Z,32.2808
2023-04-16T11:39:09.323Z,32.2592
2023-04-16T11:40:13.624Z,32.2850
2023-04-16T11:41:17.480Z,32.2308
2023-04-16T11:42:21.613Z,32.2158
2023-04-16T11:43:25.504Z,32.2683
2023-04-16T11:44:29.386Z,32.2475
2023-04-16T11:45:33.282Z,32.1667
2023-04-16T11:46:37.196Z,32.1992
2023-04-16T11:47:41.123Z,32.3033
2023-04-16T11:48:45.045Z,32.2533
2023-04-16T11:49:48.953Z,32.2475
2023-04-16T11:50:52.826Z,32.2400
2023-04-16T11:51:56.742Z,32.2250
2023-04-16T11:53:00.829Z,32.1583
2023-04-16T11:54:04.733Z,32.1233
2023-04-16T11:55:08.845Z,32.1575
2023-04-16T11:56:12.743Z,32.1800
2023-04-16T11:57:16.652Z,32.1858
2023-04-16T11:58:20.541Z,32.1442
2023-04-16T11:59:21.384Z,32.1418
2023-04-16T12:00:25.270Z,32.1417
2023-04-16T12:01:29.178Z,32.1983
2023-04-16T12:02:33.148Z,32.1883
2023-04-16T12:03:37.339Z,32.2067
2023-04-16T12:04:41.485Z,32.2583
2023-04-16T12:05:45.387Z,32.2083
2023-04-16T12:06:49.293Z,32.1850
2023-04-16T12:07:53.478Z,32.2233
2023-04-16T12:08:57.366Z,32.2350
2023-04-16T12:10:01.276Z,32.2950
2023-04-16T12:11:05.174Z,32.2808
2023-04-16T12:12:09.319Z,32.3400
2023-04-16T12:13:13.218Z,32.2708
2023-04-16T12:14:17.121Z,32.2617
2023-04-16T12:15:21.249Z,32.2058
2023-04-16T12:16:25.157Z,32.2192
2023-04-16T12:17:29.084Z,32.2350
2023-04-16T12:18:32.935Z,32.1825
2023-04-16T12:19:36.842Z,32.1883
2023-04-16T12:20:40.723Z,32.2983
2023-04-16T12:21:44.604Z,32.3292
2023-04-16T12:22:48.751Z,32.3133
2023-04-16T12:23:52.627Z,32.3033
2023-04-16T12:24:56.757Z,32.2808
2023-04-16T12:26:00.646Z,32.3283
2023-04-16T12:27:04.552Z,32.3417
2023-04-16T12:28:08.421Z,32.3425
2023-04-16T12:29:12.313Z,32.4183
2023-04-16T12:30:16.432Z,32.4358
2023-04-16T12:31:20.420Z,32.5092
2023-04-16T12:32:24.349Z,32.5417
2023-04-16T12:33:28.298Z,32.5008
2023-04-16T12:34:46.765Z,32.3925
2023-04-16T12:35:36.929Z,32.3227
2023-04-16T12:36:40.827Z,32.2342
2023-04-16T12:37:44.956Z,32.1458
2023-04-16T12:38:48.862Z,32.1667
2023-04-16T12:39:53.001Z,32.2525
2023-04-16T12:40:57.332Z,32.4333
2023-04-16T12:42:01.334Z,32.3625
2023-04-16T12:43:05.518Z,32.4025
2023-04-16T12:44:09.392Z,32.4075
2023-04-16T12:45:13.278Z,32.4317
2023-04-16T12:46:17.208Z,32.5050
2023-04-16T12:47:21.108Z,32.4375
2023-04-16T12:48:24.964Z,32.4567
2023-04-16T12:49:28.861Z,32.5442
2023-04-16T12:50:32.751Z,32.5342
2023-04-16T12:51:36.646Z,32.4633
2023-04-16T12:52:40.537Z,32.4733